Time;durP1;ratioP1;P1;durP2;ratioP2;P2;SDS_P1;SDS_P2;PMS_P1;PMS_P2;Temp;Humidity;BMP_temperature;BMP_pressure;BME280_temperature;BME280_humidity;BME280_pressure;Samples;Min_cycle;Max_cycle;Signal;HPM_P1;HPM_P2
2022/07/31 00:01:07;;;;;;;1999.90;999.90;;;;;;;14.80;100.00;99332.91;5053866;28;20044;-52
2022/07/31 00:03:52;;;;;;;1999.90;999.90;;;;;;;14.79;100.00;99336.47;5053218;28;20115;-52
2022/07/31 00:06:37;;;;;;;1999.90;999.90;;;;;;;14.80;100.00;99335.53;5054789;28;20048;-52
2022/07/31 00:09:22;;;;;;;1999.90;999.90;;;;;;;14.78;100.00;99336.53;5053004;28;20040;-52
2022/07/31 00:12:06;;;;;;;1999.90;999.90;;;;;;;14.72;100.00;99333.28;5063258;28;20041;-53
2022/07/31 00:14:51;;;;;;;1999.90;999.90;;;;;;;14.77;100.00;99333.03;5055465;28;20055;-54
2022/07/31 00:17:39;;;;;;;1999.90;999.90;;;;;;;14.79;100.00;99335.63;5053946;28;20044;-52
2022/07/31 00:20:24;;;;;;;1999.90;999.90;;;;;;;14.85;100.00;99341.44;5055562;28;20037;-53
2022/07/31 00:23:09;;;;;;;1999.90;999.90;;;;;;;14.70;100.00;99350.09;5056422;28;20045;-54
2022/07/31 00:25:53;;;;;;;1999.90;999.90;;;;;;;14.77;100.00;99342.75;5054823;28;20075;-52
2022/07/31 00:28:38;;;;;;;1999.90;999.90;;;;;;;14.76;100.00;99341.03;5056367;28;20048;-54
2022/07/31 00:31:23;;;;;;;1999.90;999.90;;;;;;;14.71;100.00;99349.16;5056614;28;20033;-53
2022/07/31 00:34:07;;;;;;;1999.90;999.90;;;;;;;14.72;100.00;99337.69;5065045;28;20076;-52
2022/07/31 00:36:51;;;;;;;1999.90;999.90;;;;;;;14.79;100.00;99331.19;5065114;28;20036;-52
2022/07/31 00:39:37;;;;;;;1999.90;999.90;;;;;;;14.66;100.00;99336.22;5067978;28;20048;-52
2022/07/31 00:42:23;;;;;;;1999.90;999.90;;;;;;;14.67;100.00;99335.28;5056116;28;20043;-52
2022/07/31 00:45:09;;;;;;;1999.90;999.90;;;;;;;14.69;100.00;99343.97;5063771;28;20046;-52
2022/07/31 00:47:54;;;;;;;1999.90;999.90;;;;;;;14.62;100.00;99342.53;5072315;28;20070;-53
2022/07/31 00:50:38;;;;;;;1999.90;999.90;;;;;;;14.70;100.00;99343.03;5070657;28;20095;-53
2022/07/31 00:53:24;;;;;;;1999.90;999.90;;;;;;;14.60;100.00;99339.16;5072355;28;20044;-52
2022/07/31 00:56:08;;;;;;;1999.90;999.90;;;;;;;14.65;100.00;99337.13;5067587;28;20380;-53
2022/07/31 00:58:54;;;;;;;1999.90;999.90;;;;;;;14.60;100.00;99330.41;5071434;28;20462;-52
2022/07/31 01:01:38;;;;;;;1999.90;999.90;;;;;;;14.54;100.00;99334.19;5067326;28;20041;-52
2022/07/31 01:04:25;;;;;;;1999.90;999.90;;;;;;;14.56;100.00;99321.78;5073450;28;20079;-52
2022/07/31 01:07:09;;;;;;;1999.90;999.90;;;;;;;14.53;100.00;99327.22;5059294;28;20041;-52
2022/07/31 01:09:54;;;;;;;1999.90;999.90;;;;;;;14.48;100.00;99322.13;5069063;28;20383;-52
2022/07/31 01:12:46;;;;;;;1999.90;999.90;;;;;;;14.52;100.00;99328.13;5070456;28;20045;-52
2022/07/31 01:15:33;;;;;;;1999.90;999.90;;;;;;;14.44;100.00;99325.00;5062888;28;20094;-52
2022/07/31 01:18:17;;;;;;;1999.90;999.90;;;;;;;14.49;100.00;99325.59;5064844;28;20044;-54
2022/07/31 01:21:06;;;;;;;1999.90;999.90;;;;;;;14.49;100.00;99338.78;5065521;28;20033;-52
2022/07/31 01:24:07;;;;;;;1999.90;999.90;;;;;;;14.47;100.00;99328.31;5070511;28;20053;-54
2022/07/31 01:28:00;;;;;;;1999.90;999.90;;;;;;;14.47;100.00;99330.09;5069638;28;20045;-52
2022/07/31 01:30:51;;;;;;;1999.90;999.90;;;;;;;14.49;100.00;99341.41;5048473;28;20044;-52
2022/07/31 01:33:45;;;;;;;1999.90;999.90;;;;;;;14.46;100.00;99333.66;5067303;28;20037;-53
2022/07/31 01:36:33;;;;;;;1999.90;999.90;;;;;;;14.48;100.00;99340.56;5058711;28;20056;-53
2022/07/31 01:39:19;;;;;;;1999.90;999.90;;;;;;;14.44;100.00;99331.09;5059317;28;20450;-52
2022/07/31 01:42:08;;;;;;;1999.90;999.90;;;;;;;14.42;100.00;99334.72;5069392;28;20041;-52
2022/07/31 01:44:59;;;;;;;1999.90;999.90;;;;;;;14.45;100.00;99330.16;5064400;28;20044;-53
2022/07/31 01:47:44;;;;;;;1999.90;999.90;;;;;;;14.41;100.00;99331.25;5067796;28;20496;-53
2022/07/31 01:50:32;;;;;;;1999.90;999.90;;;;;;;14.44;100.00;99335.53;5069591;28;20064;-52
2022/07/31 01:53:20;;;;;;;1999.90;999.90;;;;;;;14.42;100.00;99334.72;5060160;28;20040;-52
2022/07/31 01:56:07;;;;;;;1999.90;999.90;;;;;;;14.41;100.00;99335.69;5060978;28;20048;-52
2022/07/31 01:58:53;;;;;;;1999.90;999.90;;;;;;;14.36;100.00;99337.66;5067781;28;20048;-53
2022/07/31 02:02:03;;;;;;;1999.90;999.90;;;;;;;14.38;100.00;99341.94;5064290;28;20368;-53
2022/07/31 02:04:48;;;;;;;1999.90;999.90;;;;;;;14.30;100.00;99324.78;5069346;28;20052;-52
2022/07/31 02:07:39;;;;;;;1999.90;999.90;;;;;;;14.41;100.00;99325.97;5063348;28;20048;-54
2022/07/31 02:10:25;;;;;;;1999.90;999.90;;;;;;;14.36;100.00;99327.13;5055567;28;20040;-52
2022/07/31 02:13:12;;;;;;;1999.90;999.90;;;;;;;14.34;100.00;99326.38;5069729;28;20052;-52
2022/07/31 02:15:56;;;;;;;1999.90;999.90;;;;;;;14.35;100.00;99322.78;5061427;28;20044;-52
2022/07/31 02:18:42;;;;;;;1999.90;999.90;;;;;;;14.40;100.00;99333.97;5067111;28;20055;-52
2022/07/31 02:21:36;;;;;;;1999.90;999.90;;;;;;;14.43;100.00;99325.94;5066014;28;20048;-54
2022/07/31 02:24:21;;;;;;;1999.90;999.90;;;;;;;14.36;100.00;99320.06;5055120;28;20063;-53
2022/07/31 02:27:07;;;;;;;1999.90;999.90;;;;;;;14.27;100.00;99307.38;5052448;28;20040;-53
2022/07/31 02:29:56;;;;;;;1999.90;999.90;;;;;;;14.34;100.00;99314.03;5057483;28;20049;-52
2022/07/31 02:32:43;;;;;;;1999.90;999.90;;;;;;;14.35;100.00;99320.16;5055058;28;20056;-53
2022/07/31 02:35:30;;;;;;;1999.90;999.90;;;;;;;14.33;100.00;99330.78;5050226;28;20041;-54
2022/07/31 02:38:18;;;;;;;1999.90;999.90;;;;;;;14.34;100.00;99324.56;5058258;28;20086;-53
2022/07/31 02:41:04;;;;;;;1999.90;999.90;;;;;;;14.28;100.00;99319.59;5064613;28;20043;-53
2022/07/31 02:43:49;;;;;;;1999.90;999.90;;;;;;;14.33;100.00;99322.88;5057996;28;20101;-52
2022/07/31 02:46:38;;;;;;;1999.90;999.90;;;;;;;14.25;100.00;99325.88;5059941;28;20037;-53
2022/07/31 02:49:23;;;;;;;1999.90;999.90;;;;;;;14.24;100.00;99321.53;5062302;28;20116;-53
2022/07/31 02:52:08;;;;;;;1999.90;999.90;;;;;;;14.28;100.00;99327.50;5068453;28;20048;-53
2022/07/31 02:54:53;;;;;;;1999.90;999.90;;;;;;;14.25;100.00;99325.88;5057101;28;20760;-52
2022/07/31 02:57:38;;;;;;;1999.90;999.90;;;;;;;14.24;100.00;99326.78;5069177;28;20052;-52
2022/07/31 03:00:26;;;;;;;1999.90;999.90;;;;;;;14.25;100.00;99320.59;5060491;28;20056;-53
2022/07/31 03:03:11;;;;;;;1999.90;999.90;;;;;;;14.23;100.00;99313.69;5063756;28;20041;-51
2022/07/31 03:05:56;;;;;;;1999.90;999.90;;;;;;;14.23;100.00;99326.84;5060402;28;20047;-51
2022/07/31 03:08:41;;;;;;;1999.90;999.90;;;;;;;14.15;100.00;99308.78;5063876;28;20365;-54
2022/07/31 03:11:26;;;;;;;1999.90;999.90;;;;;;;14.18;100.00;99318.34;5062574;28;20430;-52
2022/07/31 03:14:11;;;;;;;1999.90;999.90;;;;;;;14.16;100.00;99321.03;5051093;28;20060;-51
2022/07/31 03:16:57;;;;;;;1999.90;999.90;;;;;;;14.17;100.00;99328.03;5067951;28;20044;-52
2022/07/31 03:19:42;;;;;;;1999.90;999.90;;;;;;;14.20;100.00;99321.72;5068801;28;20044;-51
2022/07/31 03:22:26;;;;;;;1999.90;999.90;;;;;;;14.18;100.00;99329.72;5081743;28;20491;-52
2022/07/31 03:25:11;;;;;;;1999.90;999.90;;;;;;;14.14;100.00;99325.53;5056592;28;20044;-53
2022/07/31 03:27:55;;;;;;;1999.90;999.90;;;;;;;14.19;100.00;99327.94;5054253;28;20044;-51
2022/07/31 03:30:40;;;;;;;1999.90;999.90;;;;;;;14.18;100.00;99318.34;5056025;28;20057;-53
2022/07/31 03:33:24;;;;;;;1999.90;999.90;;;;;;;14.16;100.00;99322.81;5059159;28;20044;-53
2022/07/31 03:36:09;;;;;;;1999.90;999.90;;;;;;;14.17;100.00;99327.13;5061433;28;20059;-52
2022/07/31 03:38:53;;;;;;;1999.90;999.90;;;;;;;14.10;100.00;99331.00;5062369;28;20049;-51
2022/07/31 03:42:05;;;;;;;1999.90;999.90;;;;;;;14.13;100.00;99336.13;5063006;28;20048;-51
2022/07/31 03:44:50;;;;;;;1999.90;999.90;;;;;;;14.10;100.00;99337.09;5067795;28;20147;-52
2022/07/31 03:47:36;;;;;;;1999.90;999.90;;;;;;;14.11;100.00;99325.69;5065147;28;20048;-52
2022/07/31 03:50:21;;;;;;;1999.90;999.90;;;;;;;14.19;100.00;99328.78;5062386;28;20076;-53
2022/07/31 03:53:07;;;;;;;1999.90;999.90;;;;;;;14.17;100.00;99333.28;5067874;28;20040;-53
2022/07/31 03:55:55;;;;;;;1999.90;999.90;;;;;;;14.17;100.00;99335.03;5069752;28;20037;-51
2022/07/31 03:58:41;;;;;;;1999.90;999.90;;;;;;;14.19;100.00;99343.75;5076609;28;20059;-51
2022/07/31 04:01:26;;;;;;;1999.90;999.90;;;;;;;14.19;100.00;99346.38;5060307;28;20048;-51
2022/07/31 04:04:16;;;;;;;1999.90;999.90;;;;;;;14.18;100.00;99344.66;5069093;28;20048;-53
2022/07/31 04:07:14;;;;;;;1999.90;999.90;;;;;;;14.16;100.00;99350.00;5054984;28;20055;-52
2022/07/31 04:09:59;;;;;;;1999.90;999.90;;;;;;;14.19;100.00;99341.09;5065868;28;20041;-53
2022/07/31 04:12:43;;;;;;;1999.90;999.90;;;;;;;14.15;100.00;99343.03;5061919;28;20786;-52
2022/07/31 04:15:29;;;;;;;1999.90;999.90;;;;;;;14.19;100.00;99346.38;5063215;28;20488;-55
2022/07/31 04:18:13;;;;;;;1999.90;999.90;;;;;;;14.15;100.00;99345.66;5074323;28;20037;-52
2022/07/31 04:21:00;;;;;;;1999.90;999.90;;;;;;;14.20;100.00;99353.34;5059734;28;20103;-51
2022/07/31 04:23:44;;;;;;;1999.90;999.90;;;;;;;14.19;100.00;99336.69;5060864;28;20076;-53
2022/07/31 04:26:38;;;;;;;1999.90;999.90;;;;;;;14.22;100.00;99341.81;5060419;28;20037;-52
2022/07/31 04:29:23;;;;;;;1999.90;999.90;;;;;;;14.20;100.00;99345.44;5061780;28;20140;-52
2022/07/31 04:32:07;;;;;;;1999.90;999.90;;;;;;;14.19;100.00;99347.22;5061185;28;20093;-52
2022/07/31 04:35:12;;;;;;;1999.90;999.90;;;;;;;14.17;100.00;99338.56;5060398;28;20040;-54
2022/07/31 04:37:57;;;;;;;1999.90;999.90;;;;;;;14.10;100.00;99346.78;5067338;28;20052;-52
2022/07/31 04:40:43;;;;;;;1999.90;999.90;;;;;;;14.08;100.00;99344.25;5055005;28;20430;-51
2022/07/31 04:43:28;;;;;;;1999.90;999.90;;;;;;;14.15;100.00;99345.66;5055234;28;20061;-54
2022/07/31 04:46:12;;;;;;;1999.90;999.90;;;;;;;14.14;100.00;99349.22;5060363;28;20071;-52
2022/07/31 04:48:57;;;;;;;1999.90;999.90;;;;;;;14.05;100.00;99351.44;5064858;28;21316;-52
2022/07/31 04:51:44;;;;;;;1999.90;999.90;;;;;;;14.01;100.00;99361.25;5066142;28;20246;-52
2022/07/31 04:54:28;;;;;;;1999.90;999.90;;;;;;;14.08;100.00;99351.31;5058219;28;20053;-56
2022/07/31 04:57:14;;;;;;;1999.90;999.90;;;;;;;14.04;100.00;99355.84;5063232;28;20068;-52
2022/07/31 04:59:59;;;;;;;1999.90;999.90;;;;;;;14.11;100.00;99351.16;5061740;28;20052;-53
2022/07/31 05:02:43;;;;;;;1999.90;999.90;;;;;;;13.99;100.00;99344.66;5057012;28;20063;-53
2022/07/31 05:05:28;;;;;;;1999.90;999.90;;;;;;;14.08;100.00;99353.94;5054094;28;20392;-52
2022/07/31 05:08:12;;;;;;;1999.90;999.90;;;;;;;14.09;100.00;99347.72;5057010;28;20657;-52
2022/07/31 05:14:06;;;;;;;1999.90;999.90;;;;;;;14.08;100.00;99354.78;5054150;28;20619;-52
2022/07/31 05:16:53;;;;;;;1999.90;999.90;;;;;;;14.02;100.00;99344.53;5060008;28;20356;-51
2022/07/31 05:19:38;;;;;;;1999.90;999.90;;;;;;;14.08;100.00;99349.50;5062717;28;20045;-51
2022/07/31 05:22:43;;;;;;;1999.90;999.90;;;;;;;14.13;100.00;99347.50;5058511;28;20392;-52
2022/07/31 05:25:47;;;;;;;1999.90;999.90;;;;;;;14.16;100.00;99352.63;5032398;28;20141;-51
2022/07/31 05:28:32;;;;;;;1999.90;999.90;;;;;;;14.13;100.00;99347.50;5060446;28;20045;-53
2022/07/31 05:31:18;;;;;;;1999.90;999.90;;;;;;;14.11;100.00;99351.16;5067447;28;20048;-52
2022/07/31 05:34:03;;;;;;;1999.90;999.90;;;;;;;14.16;100.00;99351.78;5065502;28;20047;-52
2022/07/31 05:36:47;;;;;;;1999.90;999.90;;;;;;;14.15;100.00;99343.03;5066314;28;20049;-52
2022/07/31 05:39:32;;;;;;;1999.90;999.90;;;;;;;14.19;100.00;99343.75;5068440;28;20045;-52
2022/07/31 05:42:35;;;;;;;1999.90;999.90;;;;;;;14.13;100.00;99346.66;5056312;28;20036;-52
2022/07/31 05:45:40;;;;;;;1999.90;999.90;;;;;;;14.13;100.00;99347.50;5064814;28;20048;-51
2022/07/31 05:48:24;;;;;;;1999.90;999.90;;;;;;;14.26;100.00;99342.50;5059426;28;20045;-52
2022/07/31 05:51:12;;;;;;;1999.90;999.90;;;;;;;14.19;100.00;99352.47;5057203;28;20957;-52
2022/07/31 05:53:56;;;;;;;1999.90;999.90;;;;;;;14.21;100.00;99342.75;5063571;28;20479;-52
2022/07/31 05:57:00;;;;;;;1999.90;999.90;;;;;;;14.17;100.00;99350.84;5060955;28;20555;-53
2022/07/31 05:59:50;;;;;;;1999.90;999.90;;;;;;;14.14;100.00;99335.22;5064513;28;20052;-52
2022/07/31 06:02:35;;;;;;;1999.90;999.90;;;;;;;14.28;100.00;99340.66;5056331;28;20049;-53
2022/07/31 06:05:42;;;;;;;1999.90;999.90;;;;;;;14.24;100.00;99339.97;5026217;28;20041;-52
2022/07/31 06:08:28;;;;;;;1999.90;999.90;;;;;;;14.25;100.00;99344.28;5061926;28;20407;-51
2022/07/31 06:11:12;;;;;;;1999.90;999.90;;;;;;;14.37;100.00;99347.28;5064487;28;20093;-52
2022/07/31 06:13:57;;;;;;;1999.90;999.90;;;;;;;14.33;100.00;99345.72;5060373;28;20086;-52
2022/07/31 06:16:49;;;;;;;1999.90;999.90;;;;;;;14.31;100.00;99350.22;5059746;28;20084;-53
2022/07/31 06:19:34;;;;;;;1999.90;999.90;;;;;;;14.51;100.00;99357.19;5056715;28;20052;-52
2022/07/31 06:22:18;;;;;;;1999.90;999.90;;;;;;;14.35;100.00;99357.88;5056802;28;20049;-52
2022/07/31 06:25:04;;;;;;;1999.90;999.90;;;;;;;14.39;100.00;99345.41;5059206;28;20052;-53
2022/07/31 06:27:49;;;;;;;1999.90;999.90;;;;;;;14.43;100.00;99358.38;5066219;28;20044;-51
2022/07/31 06:30:33;;;;;;;1999.90;999.90;;;;;;;14.47;100.00;99353.81;5055344;28;20400;-53
2022/07/31 06:33:17;;;;;;;1999.90;999.90;;;;;;;14.43;100.00;99354.91;5064610;28;20938;-53
2022/07/31 06:36:02;;;;;;;1999.90;999.90;;;;;;;14.52;100.00;99354.47;5058896;28;20508;-52
2022/07/31 06:38:55;;;;;;;1999.90;999.90;;;;;;;14.52;100.00;99356.25;5066017;28;20049;-52
2022/07/31 06:41:48;;;;;;;1999.90;999.90;;;;;;;14.57;100.00;99356.91;5056145;28;20048;-52
2022/07/31 06:44:48;;;;;;;1999.90;999.90;;;;;;;14.58;100.00;99364.72;5053793;28;20053;-52
2022/07/31 06:47:51;;;;;;;1999.90;999.90;;;;;;;14.68;100.00;99362.50;5052287;28;20060;-52
2022/07/31 06:51:05;;;;;;;1999.90;999.90;;;;;;;14.69;100.00;99359.78;5048770;28;20049;-52
2022/07/31 06:53:59;;;;;;;1999.90;999.90;;;;;;;14.64;100.00;99363.56;5051832;28;20037;-53
2022/07/31 06:56:44;;;;;;;1999.90;999.90;;;;;;;14.69;100.00;99364.22;5056392;28;20064;-52
2022/07/31 06:59:29;;;;;;;1999.90;999.90;;;;;;;14.75;100.00;99373.59;5057043;28;20484;-52
2022/07/31 07:02:13;;;;;;;1999.90;999.90;;;;;;;14.84;100.00;99370.50;5054971;28;20037;-52
2022/07/31 07:04:57;;;;;;;1999.90;999.90;;;;;;;14.89;100.00;99371.13;5053192;28;20037;-53
2022/07/31 07:07:42;;;;;;;1999.90;999.90;;;;;;;14.83;100.00;99372.28;5059056;28;20463;-52
2022/07/31 07:10:27;;;;;;;1999.90;999.90;;;;;;;14.82;100.00;99370.59;5053440;28;20041;-52
2022/07/31 07:13:17;;;;;;;1999.90;999.90;;;;;;;14.91;100.00;99374.53;5053975;28;20049;-53
2022/07/31 07:16:02;;;;;;;1999.90;999.90;;;;;;;15.00;100.00;99368.81;5064430;28;20044;-52
2022/07/31 07:18:46;;;;;;;1999.90;999.90;;;;;;;14.95;100.00;99366.41;5054270;28;20548;-52
2022/07/31 07:21:31;;;;;;;1999.90;999.90;;;;;;;14.89;100.00;99372.00;5050934;28;20060;-52
2022/07/31 07:24:16;;;;;;;1999.90;999.90;;;;;;;14.91;100.00;99378.03;5054461;28;20059;-52
2022/07/31 07:27:09;;;;;;;1999.90;999.90;;;;;;;15.02;100.00;99376.66;5047941;28;20056;-52
2022/07/31 07:29:53;;;;;;;1999.90;999.90;;;;;;;15.10;100.00;99371.84;5057957;28;20067;-52
2022/07/31 07:32:38;;;;;;;1999.90;999.90;;;;;;;14.99;100.00;99375.03;5052776;28;20041;-52
2022/07/31 07:35:23;;;;;;;1999.90;999.90;;;;;;;15.09;100.00;99376.25;5051159;28;20037;-53
2022/07/31 07:38:10;;;;;;;1999.90;999.90;;;;;;;15.16;100.00;99377.66;5057738;28;20052;-52
2022/07/31 07:40:55;;;;;;;1999.90;999.90;;;;;;;15.00;100.00;99375.88;5075202;28;20044;-52
2022/07/31 07:43:40;;;;;;;1999.90;999.90;;;;;;;15.06;100.00;99376.41;5059413;28;20063;-52
2022/07/31 07:46:25;;;;;;;1999.90;999.90;;;;;;;15.27;100.00;99373.63;5062702;28;20057;-52
2022/07/31 07:49:15;;;;;;;1999.90;999.90;;;;;;;15.09;100.00;99376.25;5054133;28;20045;-52
2022/07/31 07:52:09;;;;;;;1999.90;999.90;;;;;;;15.03;100.00;99378.34;5064071;28;20064;-52
2022/07/31 07:54:56;;;;;;;1999.90;999.90;;;;;;;15.13;100.00;99379.59;5063976;28;20053;-52
2022/07/31 07:58:09;;;;;;;1999.90;999.90;;;;;;;15.18;100.00;99383.72;5053929;28;20763;-52
2022/07/31 08:01:32;;;;;;;1999.90;999.90;;;;;;;15.04;100.00;99378.25;5013450;28;20050;-52
2022/07/31 08:04:27;;;;;;;1999.90;999.90;;;;;;;15.16;100.00;99382.94;5003683;28;20046;-53
2022/07/31 08:07:12;;;;;;;1999.90;999.90;;;;;;;15.14;100.00;99386.56;5052593;28;20495;-53
2022/07/31 08:09:58;;;;;;;1999.90;999.90;;;;;;;15.13;100.00;99359.34;5057877;28;20044;-52
2022/07/31 08:12:45;;;;;;;1999.90;999.90;;;;;;;15.17;100.00;99382.00;5065522;28;20128;-51
2022/07/31 08:15:33;;;;;;;1999.90;999.90;;;;;;;15.40;100.00;99378.22;5063177;28;20127;-49
2022/07/31 08:18:30;;;;;;;1999.90;999.90;;;;;;;15.31;100.00;99370.75;5059999;28;20105;-52
2022/07/31 08:21:15;;;;;;;1999.90;999.90;;;;;;;15.51;100.00;99371.50;5056429;28;20045;-52
2022/07/31 08:24:00;;;;;;;1999.90;999.90;;;;;;;15.46;100.00;99384.94;5059064;28;20056;-53
2022/07/31 08:29:49;;;;;;;1999.90;999.90;;;;;;;15.56;100.00;99367.69;5060393;28;20051;-52
2022/07/31 08:32:37;;;;;;;1999.90;999.90;;;;;;;15.63;100.00;99366.44;5061644;28;20044;-53
2022/07/31 08:35:41;;;;;;;1999.90;999.90;;;;;;;15.82;100.00;99366.34;5056481;28;20040;-52
2022/07/31 08:38:25;;;;;;;1999.90;999.90;;;;;;;15.75;100.00;99378.16;5057606;28;20059;-53
2022/07/31 08:41:38;;;;;;;1999.90;999.90;;;;;;;16.08;100.00;99364.91;5042534;28;20407;-51
2022/07/31 08:44:22;;;;;;;1999.90;999.90;;;;;;;16.11;100.00;99361.25;5054565;28;20104;-52
2022/07/31 08:47:10;;;;;;;1999.90;999.90;;;;;;;16.31;100.00;99363.69;5056831;28;20053;-52
2022/07/31 08:49:56;;;;;;;1999.90;999.90;;;;;;;16.31;100.00;99368.97;5059778;28;20047;-52
2022/07/31 08:52:43;;;;;;;1999.90;999.90;;;;;;;16.58;100.00;99363.06;5054700;28;20159;-53
2022/07/31 08:55:55;;;;;;;1999.90;999.90;;;;;;;16.79;100.00;99375.06;5056539;28;20049;-52
2022/07/31 08:58:41;;;;;;;1999.90;999.90;;;;;;;16.56;100.00;99362.28;5061322;28;20079;-52
2022/07/31 09:01:26;;;;;;;1999.90;999.90;;;;;;;16.95;100.00;99375.03;5060918;28;20512;-52
2022/07/31 09:04:11;;;;;;;1999.90;999.90;;;;;;;17.27;100.00;99374.97;5055149;28;20052;-52
2022/07/31 09:06:58;;;;;;;1999.90;999.90;;;;;;;17.25;100.00;99379.47;5057709;28;20045;-52
2022/07/31 09:09:46;;;;;;;1999.90;999.90;;;;;;;17.53;100.00;99376.03;5065424;28;20048;-52
2022/07/31 09:12:32;;;;;;;1999.90;999.90;;;;;;;17.42;100.00;99382.00;5054019;28;20067;-53
2022/07/31 09:15:27;;;;;;;1999.90;999.90;;;;;;;17.39;100.00;99384.81;5053350;28;20053;-52
2022/07/31 09:18:20;;;;;;;1999.90;999.90;;;;;;;17.91;100.00;99384.34;5059608;28;20132;-53
2022/07/31 09:21:08;;;;;;;1999.90;999.90;;;;;;;17.95;100.00;99379.69;5049679;28;20056;-52
2022/07/31 09:23:53;;;;;;;1999.90;999.90;;;;;;;18.09;100.00;99384.13;5054973;28;20139;-52
2022/07/31 09:26:41;;;;;;;1999.90;999.90;;;;;;;18.50;100.00;99386.81;5056919;28;20045;-53
2022/07/31 09:29:34;;;;;;;1999.90;999.90;;;;;;;18.08;100.00;99380.63;5056840;28;20045;-52
2022/07/31 09:32:20;;;;;;;1999.90;999.90;;;;;;;17.86;100.00;99383.75;5062258;28;20045;-52
2022/07/31 09:35:24;;;;;;;1999.90;999.90;;;;;;;18.14;100.00;99384.69;5050530;28;20052;-52
2022/07/31 09:38:09;;;;;;;1999.90;999.90;;;;;;;18.17;100.00;99380.06;5051665;28;20620;-50
2022/07/31 09:41:21;;;;;;;1999.90;999.90;;;;;;;18.16;100.00;99367.72;5038837;28;20052;-52
2022/07/31 09:44:18;;;;;;;1999.90;999.90;;;;;;;18.59;100.00;99370.31;5050358;28;20685;-53
2022/07/31 09:47:02;;;;;;;1999.90;999.90;;;;;;;18.68;100.00;99374.13;5056133;28;20055;-52
2022/07/31 09:49:53;;;;;;;1999.90;999.90;;;;;;;18.87;100.00;99377.31;5051192;28;20041;-53
2022/07/31 09:52:39;;;;;;;1999.90;999.90;;;;;;;18.67;100.00;99375.94;5049897;28;20075;-52
2022/07/31 09:55:24;;;;;;;1999.90;999.90;;;;;;;18.26;100.00;99373.28;5054047;28;20046;-52
2022/07/31 09:58:09;;;;;;;1999.90;999.90;;;;;;;18.17;100.00;99374.75;5057483;28;20044;-52
2022/07/31 10:01:01;;;;;;;1999.90;999.90;;;;;;;18.26;100.00;99378.59;5054706;28;20118;-52
2022/07/31 10:03:50;;;;;;;1999.90;999.90;;;;;;;18.21;100.00;99375.41;5054129;28;20065;-53
2022/07/31 10:06:35;;;;;;;1999.90;999.90;;;;;;;18.21;100.00;99378.91;5055311;28;20161;-52
2022/07/31 10:09:24;;;;;;;1999.90;999.90;;;;;;;18.24;100.00;99363.75;5061211;28;20044;-52
2022/07/31 10:12:28;;;;;;;1999.90;999.90;;;;;;;18.69;100.00;99389.13;5063092;28;20056;-52
2022/07/31 10:15:16;;;;;;;1999.90;999.90;;;;;;;18.29;100.00;99380.22;5052664;28;20040;-53
2022/07/31 10:18:16;;;;;;;1999.90;999.90;;;;;;;18.91;100.00;99383.25;5048980;28;20052;-52
2022/07/31 10:21:15;;;;;;;1999.90;999.90;;;;;;;19.24;100.00;99381.97;5056469;28;20040;-52
2022/07/31 10:24:09;;;;;;;1999.90;999.90;;;;;;;18.78;100.00;99387.69;5047866;28;20059;-52
2022/07/31 10:26:58;;;;;;;1999.90;999.90;;;;;;;18.97;100.00;99388.16;5051862;28;20052;-54
2022/07/31 10:29:43;;;;;;;1999.90;999.90;;;;;;;19.12;100.00;99383.66;5054021;28;20050;-53
2022/07/31 10:32:28;;;;;;;1999.90;999.90;;;;;;;19.34;100.00;99397.19;5059971;28;20045;-51
2022/07/31 10:35:51;;;;;;;1999.90;999.90;;;;;;;19.62;100.00;99405.91;5007692;28;20048;-53
2022/07/31 10:39:12;;;;;;;1999.90;999.90;;;;;;;19.37;100.00;99396.13;5057176;28;20048;-53
2022/07/31 10:42:41;;;;;;;1999.90;999.90;;;;;;;19.06;100.00;99397.34;5032793;28;20059;-52
2022/07/31 10:45:28;;;;;;;1999.90;999.90;;;;;;;19.26;100.00;99409.28;5049156;28;20044;-53
2022/07/31 10:48:52;;;;;;;1999.90;999.90;;;;;;;18.94;100.00;99412.25;5044436;28;20053;-52
2022/07/31 10:52:05;;;;;;;;;;;;;;;18.76;100.00;99401.06;5021986;28;20071;-53
2022/07/31 10:55:16;;;;;;;1999.90;999.90;;;;;;;19.10;100.00;99402.31;5050928;28;19924;-51
2022/07/31 10:58:24;;;;;;;1999.90;999.90;;;;;;;19.25;100.00;99411.09;5048606;28;20060;-52
2022/07/31 11:01:10;;;;;;;1999.90;999.90;;;;;;;19.23;100.00;99405.00;5052188;28;20543;-52
2022/07/31 11:04:25;;;;;;;1999.90;999.90;;;;;;;19.17;100.00;99408.06;5048331;28;20049;-52
2022/07/31 11:07:28;;;;;;;1999.90;999.90;;;;;;;19.07;100.00;99413.13;5047887;28;20044;-52
2022/07/31 11:10:22;;;;;;;1999.90;999.90;;;;;;;19.32;100.00;99409.72;5047500;28;20455;-52
2022/07/31 11:13:54;;;;;;;1999.90;999.90;;;;;;;19.52;100.00;99404.84;5055899;28;20036;-52
2022/07/31 11:16:54;;;;;;;1999.90;999.90;;;;;;;19.19;100.00;99398.22;5051894;28;20053;-52
2022/07/31 11:20:01;;;;;;;1999.90;999.90;;;;;;;19.29;100.00;99401.94;5060676;28;20052;-53
2022/07/31 11:22:55;;;;;;;1999.90;999.90;;;;;;;19.59;100.00;99414.09;5062069;28;20048;-52
2022/07/31 11:25:40;;;;;;;1999.90;999.90;;;;;;;19.43;100.00;99408.13;5052432;28;20049;-52
2022/07/31 11:28:25;;;;;;;1999.90;999.90;;;;;;;19.30;100.00;99406.31;5058179;28;20064;-51
2022/07/31 11:31:09;;;;;;;1999.90;999.90;;;;;;;19.32;100.00;99415.03;5052182;28;20045;-52
2022/07/31 11:33:53;;;;;;;1999.90;999.90;;;;;;;19.06;100.00;99415.91;5063100;28;20078;-52
2022/07/31 11:36:43;;;;;;;1999.90;999.90;;;;;;;19.06;100.00;99408.78;5059487;28;20496;-52
2022/07/31 11:39:27;;;;;;;1999.90;999.90;;;;;;;19.28;100.00;99402.91;5062294;28;20072;-53
2022/07/31 11:42:12;;;;;;;1999.90;999.90;;;;;;;19.79;100.00;99402.13;5062053;28;20052;-53
2022/07/31 11:45:04;;;;;;;1999.90;999.90;;;;;;;19.04;100.00;99408.03;5065010;28;20047;-53
2022/07/31 11:47:50;;;;;;;1999.90;999.90;;;;;;;19.34;100.00;99404.31;5054179;28;20074;-52
2022/07/31 11:50:39;;;;;;;1999.90;999.90;;;;;;;19.55;100.00;99410.78;5064505;28;20450;-51
2022/07/31 11:53:24;;;;;;;1999.90;999.90;;;;;;;19.33;100.00;99406.09;5060937;28;20361;-51
2022/07/31 11:56:09;;;;;;;1999.90;999.90;;;;;;;19.46;100.00;99408.75;5064996;28;20127;-51
2022/07/31 11:58:56;;;;;;;1999.90;999.90;;;;;;;19.51;100.00;99406.66;5059263;28;20041;-52
2022/07/31 12:01:40;;;;;;;1999.90;999.90;;;;;;;19.31;100.00;99402.72;5057809;28;20087;-52
2022/07/31 12:04:25;;;;;;;1999.90;999.90;;;;;;;19.36;100.00;99413.84;5060311;28;20040;-52
2022/07/31 12:07:09;;;;;;;1999.90;999.90;;;;;;;19.45;100.00;99404.41;5059944;28;20048;-52
2022/07/31 12:09:54;;;;;;;1999.90;999.90;;;;;;;19.82;100.00;99400.13;5062322;28;20560;-52
2022/07/31 12:12:41;;;;;;;1999.90;999.90;;;;;;;20.08;100.00;99410.72;5062411;28;20075;-52
2022/07/31 12:15:25;;;;;;;1999.90;999.90;;;;;;;19.68;100.00;99410.00;5056129;28;20411;-51
2022/07/31 12:18:09;;;;;;;1999.90;999.90;;;;;;;20.25;100.00;99409.53;5058424;28;20571;-52
2022/07/31 12:21:00;;;;;;;1999.90;999.90;;;;;;;20.24;100.00;99407.81;5061608;28;20056;-51
2022/07/31 12:23:49;;;;;;;1999.90;999.90;;;;;;;20.56;100.00;99405.53;5062002;28;20660;-53
2022/07/31 12:26:33;;;;;;;1999.90;999.90;;;;;;;20.78;100.00;99402.16;5057937;28;20053;-52
2022/07/31 12:29:19;;;;;;;1999.90;999.90;;;;;;;20.68;100.00;99393.16;5052837;28;20538;-52
2022/07/31 12:32:05;;;;;;;1999.90;999.90;;;;;;;20.39;100.00;99405.88;5061291;28;20702;-52